createdAt,value
2022-08-28T00:01:05.119Z,97630.59
2022-08-28T00:03:33.391Z,97628.94
2022-08-28T00:06:01.687Z,97636.22
2022-08-28T00:08:31.777Z,97631.44
2022-08-28T00:10:59.597Z,97629.94
2022-08-28T00:13:27.507Z,97644.34
2022-08-28T00:15:56.710Z,97641.13
2022-08-28T00:18:24.629Z,97632.66
2022-08-28T00:20:52.495Z,97651.13
2022-08-28T00:23:20.797Z,97643.69
2022-08-28T00:25:50.049Z,97642.00
2022-08-28T00:28:24.403Z,97651.13
2022-08-28T00:30:53.456Z,97650.59
2022-08-28T00:33:22.460Z,97664.97
2022-08-28T00:35:50.528Z,97651.63
2022-08-28T00:38:19.922Z,97653.16
2022-08-28T00:40:50.476Z,97651.13
2022-08-28T00:43:25.867Z,97659.75
2022-08-28T00:45:53.801Z,97657.72
2022-08-28T00:48:21.707Z,97665.16
2022-08-28T00:51:07.033Z,97660.41
2022-08-28T00:53:35.281Z,97657.88
2022-08-28T00:56:10.198Z,97661.25
2022-08-28T00:58:41.293Z,97659.91
2022-08-28T01:01:09.923Z,97652.78
2022-08-28T01:03:37.796Z,97651.78
2022-08-28T01:06:05.898Z,97654.31
2022-08-28T01:08:34.015Z,97655.69
2022-08-28T01:11:04.047Z,97661.09
2022-08-28T01:13:31.976Z,97664.31
2022-08-28T01:16:00.648Z,97659.75
2022-08-28T01:18:29.415Z,97661.75
2022-08-28T01:20:59.925Z,97667.69
2022-08-28T01:23:41.075Z,97669.69
2022-08-28T01:26:10.973Z,97668.19
2022-08-28T01:28:39.871Z,97675.13
2022-08-28T01:31:10.400Z,97668.84
2022-08-28T01:33:39.324Z,97673.59
2022-08-28T01:36:12.230Z,97664.97
2022-08-28T01:38:41.880Z,97669.72
2022-08-28T01:41:09.775Z,97669.19
2022-08-28T01:43:37.750Z,97674.75
2022-08-28T01:46:06.509Z,97663.81
2022-08-28T01:48:36.285Z,97666.31
2022-08-28T01:51:04.386Z,97668.69
2022-08-28T01:53:33.464Z,97674.94
2022-08-28T01:56:04.536Z,97674.75
2022-08-28T01:58:37.946Z,97672.88
2022-08-28T02:01:09.859Z,97667.00
2022-08-28T02:03:37.805Z,97674.22
2022-08-28T02:06:06.111Z,97673.72
2022-08-28T02:08:33.912Z,97662.72
2022-08-28T02:11:03.128Z,97666.28
2022-08-28T02:13:31.059Z,97658.47
2022-08-28T02:15:59.007Z,97657.59
2022-08-28T02:18:26.928Z,97657.75
2022-08-28T02:20:55.017Z,97663.75
2022-08-28T02:23:22.809Z,97670.84
2022-08-28T02:25:50.913Z,97675.66
2022-08-28T02:28:20.454Z,97676.03
2022-08-28T02:30:48.506Z,97676.84
2022-08-28T02:33:16.358Z,97681.22
2022-08-28T02:35:44.249Z,97680.56
2022-08-28T02:38:13.045Z,97685.13
2022-08-28T02:40:43.491Z,97686.75
2022-08-28T02:43:11.680Z,97683.56
2022-08-28T02:45:40.922Z,97688.47
2022-08-28T02:48:15.941Z,97678.31
2022-08-28T02:50:46.278Z,97678.47
2022-08-28T02:53:14.404Z,97689.91
2022-08-28T02:55:42.218Z,97681.94
2022-08-28T02:58:10.627Z,97673.34
2022-08-28T03:00:40.156Z,97670.63
2022-08-28T03:03:08.689Z,97668.91
2022-08-28T03:05:36.509Z,97665.44
2022-08-28T03:08:04.932Z,97664.81
2022-08-28T03:10:32.924Z,97665.59
2022-08-28T03:13:00.800Z,97655.94
2022-08-28T03:15:28.889Z,97653.16
2022-08-28T03:17:58.053Z,97654.00
2022-08-28T03:20:26.225Z,97655.19
2022-08-28T03:23:11.794Z,97659.44
2022-08-28T03:25:39.828Z,97653.53
2022-08-28T03:28:08.097Z,97660.94
2022-08-28T03:30:35.931Z,97663.38
2022-08-28T03:33:05.177Z,97663.88
2022-08-28T03:35:33.008Z,97661.78
2022-08-28T03:38:00.992Z,97668.75
2022-08-28T03:40:28.878Z,97666.31
2022-08-28T03:42:56.781Z,97675.91
2022-08-28T03:45:24.659Z,97678.97
2022-08-28T03:47:55.036Z,97676.81
2022-08-28T03:50:24.508Z,97694.38
2022-08-28T03:52:52.619Z,97690.91
2022-08-28T03:55:22.657Z,97686.09
2022-08-28T03:57:51.645Z,97697.06
2022-08-28T04:00:20.615Z,97689.84
2022-08-28T04:02:48.568Z,97694.34
2022-08-28T04:05:17.614Z,97695.81
2022-08-28T04:07:46.869Z,97694.50
2022-08-28T04:10:14.746Z,97700.34
2022-08-28T04:12:44.494Z,97701.59
2022-08-28T04:15:12.776Z,97708.28
2022-08-28T04:17:41.086Z,97703.63
2022-08-28T04:20:10.330Z,97707.09
2022-08-28T04:22:38.484Z,97715.97
2022-08-28T04:25:08.969Z,97721.16
2022-08-28T04:27:36.981Z,97720.09
2022-08-28T04:30:05.678Z,97723.00
2022-08-28T04:32:35.078Z,97724.22
2022-08-28T04:35:03.066Z,97716.13
2022-08-28T04:37:31.830Z,97715.59
2022-08-28T04:39:59.863Z,97721.38
2022-08-28T04:42:29.477Z,97734.75
2022-08-28T04:44:58.034Z,97727.72
2022-08-28T04:47:25.857Z,97730.81
2022-08-28T04:49:54.294Z,97735.09
2022-08-28T04:52:22.398Z,97738.19
2022-08-28T04:54:50.498Z,97731.25
2022-08-28T04:57:18.355Z,97745.66
2022-08-28T04:59:47.849Z,97745.59
2022-08-28T05:02:15.722Z,97752.69
2022-08-28T05:04:43.606Z,97753.75
2022-08-28T05:07:11.747Z,97754.38
2022-08-28T05:09:39.673Z,97753.00
2022-08-28T05:12:07.585Z,97762.34
2022-08-28T05:14:36.693Z,97754.78
2022-08-28T05:17:06.314Z,97758.00
2022-08-28T05:19:34.358Z,97760.16
2022-08-28T05:22:02.426Z,97771.03
2022-08-28T05:24:30.335Z,97763.78
2022-08-28T05:26:58.206Z,97770.50
2022-08-28T05:29:26.346Z,97761.50
2022-08-28T05:31:54.198Z,97763.66
2022-08-28T05:34:23.403Z,97764.50
2022-08-28T05:36:51.291Z,97765.34
2022-08-28T05:39:19.207Z,97775.38
2022-08-28T05:41:47.307Z,97777.69
2022-08-28T05:44:16.779Z,97781.25
2022-08-28T05:46:47.790Z,97781.75
2022-08-28T05:49:15.732Z,97780.59
2022-08-28T05:51:45.291Z,97777.53
2022-08-28T05:54:14.913Z,97788.78
2022-08-28T05:56:44.041Z,97791.50
2022-08-28T05:59:12.267Z,97792.88
2022-08-28T06:01:41.066Z,97791.97
2022-08-28T06:04:10.379Z,97790.97
2022-08-28T06:06:38.363Z,97801.19
2022-08-28T06:09:08.868Z,97802.91
2022-08-28T06:11:38.752Z,97803.19
2022-08-28T06:14:11.969Z,97796.44
2022-08-28T06:16:41.644Z,97798.94
2022-08-28T06:19:10.489Z,97802.94
2022-08-28T06:21:38.642Z,97792.88
2022-08-28T06:24:08.367Z,97797.28
2022-08-28T06:26:36.203Z,97802.78
2022-08-28T06:29:08.794Z,97804.91
2022-08-28T06:31:36.697Z,97812.41
2022-08-28T06:34:04.674Z,97811.16
2022-08-28T06:36:35.528Z,97820.25
2022-08-28T06:39:03.786Z,97810.00
2022-08-28T06:41:33.232Z,97816.44
2022-08-28T06:44:01.260Z,97819.19
2022-08-28T06:46:30.486Z,97820.41
2022-08-28T06:48:58.302Z,97818.63
2022-08-28T06:51:26.216Z,97823.03
2022-08-28T06:53:55.205Z,97826.44
2022-08-28T06:56:26.047Z,97816.00
2022-08-28T06:58:56.995Z,97815.84
2022-08-28T07:01:27.044Z,97817.19
2022-08-28T07:03:55.853Z,97818.97
2022-08-28T07:06:24.105Z,97820.22
2022-08-28T07:08:52.106Z,97814.53
2022-08-28T07:11:26.060Z,97823.75
2022-08-28T07:13:56.029Z,97826.75
2022-08-28T07:16:25.376Z,97828.00
2022-08-28T07:18:53.317Z,97820.09
2022-08-28T07:21:21.582Z,97820.44
2022-08-28T07:23:49.467Z,97826.88
2022-08-28T07:26:18.497Z,97833.56
2022-08-28T07:28:47.076Z,97825.75
2022-08-28T07:31:17.499Z,97832.56
2022-08-28T07:33:45.478Z,97830.66
2022-08-28T07:36:15.981Z,97834.09
2022-08-28T07:38:57.999Z,97836.31
2022-08-28T07:41:27.017Z,97847.44
2022-08-28T07:44:12.471Z,97839.59
2022-08-28T07:46:41.707Z,97847.91
2022-08-28T07:49:09.694Z,97839.28
2022-08-28T07:51:38.038Z,97842.34
2022-08-28T07:54:06.214Z,97843.84
2022-08-28T07:56:40.738Z,97845.34
2022-08-28T07:59:09.578Z,97858.25
2022-08-28T08:01:39.109Z,97840.25
2022-08-28T08:04:08.786Z,97853.47
2022-08-28T08:06:37.466Z,97837.94
2022-08-28T08:09:05.742Z,97846.38
2022-08-28T08:11:33.677Z,97857.66
2022-08-28T08:14:05.484Z,97856.97
2022-08-28T08:16:36.014Z,97859.66
2022-08-28T08:19:04.371Z,97855.72
2022-08-28T08:21:33.658Z,97856.66
2022-08-28T08:24:01.529Z,97863.69
2022-08-28T08:26:29.640Z,97866.03
2022-08-28T08:28:57.742Z,97865.72
2022-08-28T08:31:27.220Z,97865.38
2022-08-28T08:33:57.612Z,97864.56
2022-08-28T08:36:26.500Z,97858.38
2022-08-28T08:38:59.496Z,97859.41
2022-08-28T08:41:30.463Z,97869.53
2022-08-28T08:44:00.581Z,97866.81
2022-08-28T08:46:33.377Z,97873.97
2022-08-28T08:49:03.506Z,97871.28
2022-08-28T08:51:40.649Z,97857.41
2022-08-28T08:54:11.850Z,97862.47
2022-08-28T08:56:40.885Z,97873.13
2022-08-28T08:59:09.134Z,97864.16
2022-08-28T09:01:41.121Z,97866.47
2022-08-28T09:04:24.746Z,97870.41
2022-08-28T09:06:53.256Z,97867.38
2022-08-28T09:09:27.759Z,97870.75
2022-08-28T09:11:57.514Z,97872.44
2022-08-28T09:14:31.342Z,97880.53
2022-08-28T09:16:59.346Z,97891.03
2022-08-28T09:19:27.246Z,97879.94
2022-08-28T09:21:57.414Z,97880.69
2022-08-28T09:24:28.392Z,97883.72
2022-08-28T09:26:59.061Z,97887.75
2022-08-28T09:29:32.560Z,97880.84
2022-08-28T09:32:15.024Z,97876.13
2022-08-28T09:34:43.491Z,97877.13
2022-08-28T09:37:13.913Z,97882.56
2022-08-28T09:39:48.111Z,97881.69
2022-08-28T09:42:36.535Z,97883.56
2022-08-28T09:45:09.054Z,97876.44
2022-08-28T09:47:46.168Z,97879.84
2022-08-28T09:50:34.750Z,97872.69
2022-08-28T09:53:17.254Z,97874.91
2022-08-28T09:55:53.104Z,97874.38
2022-08-28T09:58:20.988Z,97874.47
2022-08-28T10:00:51.423Z,97876.38
2022-08-28T10:03:21.443Z,97870.91
2022-08-28T10:05:58.469Z,97864.59
2022-08-28T10:08:33.210Z,97860.25
2022-08-28T10:11:04.058Z,97858.88
2022-08-28T10:13:32.962Z,97858.88
2022-08-28T10:16:11.985Z,97864.50
2022-08-28T10:18:41.991Z,97853.75
2022-08-28T10:21:14.075Z,97859.34
2022-08-28T10:23:50.844Z,97859.22
2022-08-28T10:26:28.873Z,97864.19
2022-08-28T10:29:03.640Z,97857.44
2022-08-28T10:31:36.229Z,97850.16
2022-08-28T10:34:11.229Z,97859.28
2022-08-28T10:36:39.099Z,97856.63
2022-08-28T10:39:18.677Z,97865.00
2022-08-28T10:41:49.609Z,97868.38
2022-08-28T10:44:20.979Z,97863.03
2022-08-28T10:46:50.965Z,97868.75
2022-08-28T10:49:24.635Z,97871.44
2022-08-28T10:51:54.115Z,97866.69
2022-08-28T10:54:24.331Z,97868.19
2022-08-28T10:56:56.266Z,97868.63
2022-08-28T10:59:24.780Z,97870.44
2022-08-28T11:01:52.804Z,97866.06
2022-08-28T11:04:25.540Z,97875.44
2022-08-28T11:06:59.409Z,97865.44
2022-08-28T11:09:39.001Z,97875.16
2022-08-28T11:12:10.386Z,97870.28
2022-08-28T11:14:47.616Z,97865.94
2022-08-28T11:17:37.364Z,97877.47
2022-08-28T11:20:10.949Z,97876.81
2022-08-28T11:22:39.906Z,97882.47
2022-08-28T11:25:14.472Z,97871.69
2022-08-28T11:28:13.879Z,97877.81
2022-08-28T11:30:42.814Z,97881.72
2022-08-28T11:33:26.306Z,97877.09
2022-08-28T11:35:54.217Z,97885.06
2022-08-28T11:38:55.898Z,97872.22
2022-08-28T11:41:26.655Z,97862.72
2022-08-28T11:44:39.178Z,97866.66
2022-08-28T11:47:57.726Z,97880.66
2022-08-28T11:50:29.728Z,97876.53
2022-08-28T11:53:24.808Z,97883.56
2022-08-28T11:56:08.120Z,97873.63
2022-08-28T11:58:39.375Z,97870.22
2022-08-28T12:01:09.390Z,97879.06
2022-08-28T12:03:37.937Z,97875.03
2022-08-28T12:06:07.791Z,97868.66
2022-08-28T12:09:03.672Z,97877.50
2022-08-28T12:11:57.852Z,97872.63
2022-08-28T12:15:04.448Z,97864.06
2022-08-28T12:17:52.451Z,97857.28
2022-08-28T12:20:26.934Z,97859.13
2022-08-28T12:22:57.355Z,97861.84
2022-08-28T12:25:31.806Z,97859.00
2022-08-28T12:28:00.924Z,97856.28
2022-08-28T12:30:30.712Z,97864.16
2022-08-28T12:33:04.110Z,97856.06
2022-08-28T12:35:31.923Z,97862.75
2022-08-28T12:38:10.239Z,97848.66
2022-08-28T12:40:50.695Z,97854.59
2022-08-28T12:43:28.813Z,97851.84
2022-08-28T12:45:57.937Z,97862.66
2022-08-28T12:48:26.882Z,97858.31
2022-08-28T12:50:59.546Z,97854.00
2022-08-28T12:53:37.963Z,97847.50
2022-08-28T12:56:05.919Z,97858.13
2022-08-28T12:58:34.741Z,97865.63
2022-08-28T13:01:05.029Z,97856.53
2022-08-28T13:03:33.381Z,97851.88
2022-08-28T13:06:03.928Z,97848.22
2022-08-28T13:08:33.283Z,97844.91
2022-08-28T13:11:01.372Z,97843.88
2022-08-28T13:13:34.082Z,97837.88
2022-08-28T13:16:02.609Z,97834.78
2022-08-28T13:18:50.029Z,97838.44
2022-08-28T13:21:35.188Z,97826.34
2022-08-28T13:24:27.584Z,97836.28
2022-08-28T13:27:11.548Z,97829.28
2022-08-28T13:29:43.747Z,97837.50
2022-08-28T13:32:17.932Z,97841.31
2022-08-28T13:35:05.045Z,97834.41
2022-08-28T13:37:42.347Z,97830.66
2022-08-28T13:40:30.115Z,97827.69
2022-08-28T13:43:00.972Z,97821.53
2022-08-28T13:45:31.567Z,97822.88
2022-08-28T13:48:11.508Z,97823.66
2022-08-28T13:50:40.091Z,97827.91
2022-08-28T13:53:07.879Z,97827.81
2022-08-28T13:55:37.122Z,97814.63
2022-08-28T13:58:05.283Z,97824.22
2022-08-28T14:00:33.351Z,97805.47
2022-08-28T14:03:18.412Z,97803.59
2022-08-28T14:05:46.238Z,97808.63
2022-08-28T14:08:14.117Z,97804.50
2022-08-28T14:10:43.467Z,97809.63
2022-08-28T14:13:11.366Z,97810.59
2022-08-28T14:15:39.491Z,97807.78
2022-08-28T14:18:07.524Z,97795.81
2022-08-28T14:20:35.352Z,97804.75
2022-08-28T14:23:03.446Z,97800.69
2022-08-28T14:25:33.814Z,97804.47
2022-08-28T14:28:06.306Z,97797.81
2022-08-28T14:30:34.148Z,97803.63
2022-08-28T14:33:02.107Z,97801.94
2022-08-28T14:35:30.005Z,97795.50
2022-08-28T14:37:57.838Z,97791.16
2022-08-28T14:40:25.717Z,97805.72
2022-08-28T14:42:53.877Z,97793.53
2022-08-28T14:45:23.414Z,97794.13
2022-08-28T14:47:51.220Z,97797.72
2022-08-28T14:50:19.105Z,97793.00
2022-08-28T14:52:47.018Z,97791.03
2022-08-28T14:55:18.886Z,97793.38
2022-08-28T14:57:48.091Z,97798.59
2022-08-28T15:00:19.184Z,97792.03
2022-08-28T15:02:48.467Z,97799.91
2022-08-28T15:05:21.252Z,97796.53
2022-08-28T15:07:49.396Z,97793.38
2022-08-28T15:10:17.317Z,97801.09
2022-08-28T15:12:45.326Z,97795.69
2022-08-28T15:15:14.760Z,97805.75
2022-08-28T15:17:42.760Z,97797.03
2022-08-28T15:20:12.933Z,97799.84
2022-08-28T15:22:41.092Z,97801.75
2022-08-28T15:25:09.404Z,97796.78
2022-08-28T15:27:37.660Z,97787.63
2022-08-28T15:30:06.386Z,97788.00
2022-08-28T15:32:34.562Z,97794.25
2022-08-28T15:35:02.565Z,97785.09
2022-08-28T15:37:31.784Z,97790.69
2022-08-28T15:40:17.693Z,97791.41
2022-08-28T15:42:45.630Z,97786.22
2022-08-28T15:45:13.555Z,97789.44
2022-08-28T15:47:41.408Z,97789.84
2022-08-28T15:50:11.359Z,97807.41
2022-08-28T15:52:40.840Z,97790.00
2022-08-28T15:55:10.409Z,97788.78
2022-08-28T15:57:38.641Z,97779.66
2022-08-28T16:00:10.138Z,97784.53
2022-08-28T16:02:38.384Z,97785.28
2022-08-28T16:05:07.100Z,97781.25
2022-08-28T16:07:35.017Z,97788.28
2022-08-28T16:10:07.091Z,97780.84
2022-08-28T16:12:35.095Z,97782.00
2022-08-28T16:15:03.017Z,97778.25
2022-08-28T16:17:30.924Z,97784.56
2022-08-28T16:20:03.168Z,97780.84
2022-08-28T16:22:34.990Z,97779.47
2022-08-28T16:25:04.778Z,97779.38
2022-08-28T16:27:33.039Z,97780.00
2022-08-28T16:30:01.054Z,97776.03
2022-08-28T16:32:29.005Z,97790.19
2022-08-28T16:34:56.809Z,97786.59
2022-08-28T16:37:27.162Z,97789.31
2022-08-28T16:40:12.375Z,97783.38
2022-08-28T16:42:47.590Z,97784.38
2022-08-28T16:45:20.598Z,97785.38
2022-08-28T16:47:49.098Z,97791.69
2022-08-28T16:50:17.074Z,97779.03
2022-08-28T16:52:45.177Z,97774.03
2022-08-28T16:55:14.627Z,97778.31
2022-08-28T16:57:42.587Z,97775.88
2022-08-28T17:00:12.018Z,97783.00
2022-08-28T17:02:41.419Z,97779.44
2022-08-28T17:05:09.802Z,97778.44
2022-08-28T17:07:39.737Z,97781.03
2022-08-28T17:10:09.019Z,97778.31
2022-08-28T17:12:38.401Z,97784.31
2022-08-28T17:15:07.534Z,97782.25
2022-08-28T17:17:35.602Z,97784.59
2022-08-28T17:20:04.840Z,97772.78
2022-08-28T17:22:32.278Z,97788.09
2022-08-28T17:25:03.943Z,97785.34
2022-08-28T17:27:34.567Z,97792.97
2022-08-28T17:30:04.988Z,97787.91
2022-08-28T17:32:32.911Z,97788.22
2022-08-28T17:35:00.840Z,97788.59
2022-08-28T17:37:28.911Z,97788.59
2022-08-28T17:39:56.919Z,97794.44
2022-08-28T17:42:24.708Z,97796.66
2022-08-28T17:44:52.586Z,97788.69
2022-08-28T17:47:27.531Z,97796.84
2022-08-28T17:49:59.025Z,97795.47
2022-08-28T17:52:26.918Z,97798.69
2022-08-28T17:54:54.688Z,97801.53
2022-08-28T17:57:24.163Z,97808.06
2022-08-28T17:59:52.197Z,97809.84
2022-08-28T18:02:20.562Z,97814.59
2022-08-28T18:04:50.278Z,97817.09
2022-08-28T18:07:18.220Z,97807.63
2022-08-28T18:09:46.418Z,97816.63
2022-08-28T18:12:14.276Z,97810.44
2022-08-28T18:14:42.138Z,97812.75
2022-08-28T18:17:11.433Z,97815.50
2022-08-28T18:19:40.131Z,97812.72
2022-08-28T18:22:10.346Z,97819.53
2022-08-28T18:24:38.572Z,97816.19
2022-08-28T18:27:07.268Z,97824.31
2022-08-28T18:29:35.258Z,97823.47
2022-08-28T18:32:04.176Z,97830.84
2022-08-28T18:34:32.084Z,97835.84
2022-08-28T18:37:00.916Z,97833.81
2022-08-28T18:39:30.554Z,97832.78
2022-08-28T18:41:58.417Z,97833.19
2022-08-28T18:44:26.212Z,97837.97
2022-08-28T18:46:54.448Z,97841.44
2022-08-28T18:49:22.313Z,97843.47
2022-08-28T18:51:50.140Z,97848.06
2022-08-28T18:54:19.025Z,97847.41
2022-08-28T18:56:50.484Z,97845.03
2022-08-28T18:59:18.608Z,97849.81
2022-08-28T19:01:47.878Z,97849.81
2022-08-28T19:04:15.866Z,97859.81
2022-08-28T19:06:44.418Z,97863.88
2022-08-28T19:09:17.901Z,97874.53
2022-08-28T19:11:49.904Z,97868.97
2022-08-28T19:14:18.050Z,97877.13
2022-08-28T19:16:50.974Z,97882.56
2022-08-28T19:19:21.959Z,97875.75
2022-08-28T19:21:54.407Z,97884.59
2022-08-28T19:24:22.635Z,97882.72
2022-08-28T19:26:51.965Z,97882.53
2022-08-28T19:29:20.377Z,97882.06
2022-08-28T19:31:48.270Z,97897.09
2022-08-28T19:34:16.090Z,97889.50
2022-08-28T19:36:44.020Z,97893.84
2022-08-28T19:39:12.462Z,97891.81
2022-08-28T19:41:40.727Z,97894.66
2022-08-28T19:44:10.373Z,97890.41
2022-08-28T19:46:38.735Z,97898.22
2022-08-28T19:49:07.525Z,97890.09
2022-08-28T19:51:36.036Z,97894.97
2022-08-28T19:54:04.290Z,97904.78
2022-08-28T19:56:32.775Z,97909.47
2022-08-28T19:59:02.319Z,97904.03
2022-08-28T20:01:33.090Z,97908.44
2022-08-28T20:04:01.156Z,97916.69
2022-08-28T20:06:30.387Z,97907.06
2022-08-28T20:08:58.298Z,97918.34
2022-08-28T20:11:30.314Z,97913.97
2022-08-28T20:13:59.963Z,97921.25
2022-08-28T20:16:28.351Z,97919.38
2022-08-28T20:18:58.512Z,97920.50
2022-08-28T20:21:37.028Z,97932.84
2022-08-28T20:24:06.359Z,97934.09
2022-08-28T20:26:34.465Z,97935.78
2022-08-28T20:29:02.368Z,97945.16
2022-08-28T20:31:30.328Z,97946.03
2022-08-28T20:34:00.029Z,97941.16
2022-08-28T20:36:27.866Z,97945.41
2022-08-28T20:38:55.743Z,97943.19
2022-08-28T20:41:23.877Z,97939.56
2022-08-28T20:43:51.731Z,97937.63
2022-08-28T20:46:20.100Z,97945.56
2022-08-28T20:48:48.415Z,97947.44
2022-08-28T20:51:37.565Z,97947.97
2022-08-28T20:54:05.721Z,97953.88
2022-08-28T20:56:33.868Z,97950.63
2022-08-28T20:59:02.121Z,97953.81
2022-08-28T21:01:30.078Z,97959.38
2022-08-28T21:03:58.389Z,97959.66
2022-08-28T21:06:27.662Z,97960.47
2022-08-28T21:08:56.410Z,97961.94
2022-08-28T21:11:24.397Z,97960.59
2022-08-28T21:13:52.288Z,97948.72
2022-08-28T21:16:20.329Z,97952.91
2022-08-28T21:19:14.066Z,97952.34
2022-08-28T21:21:37.819Z,97958.13
2022-08-28T21:24:06.231Z,97957.69
2022-08-28T21:26:34.461Z,97965.78
2022-08-28T21:29:02.312Z,97964.59
2022-08-28T21:31:30.152Z,97969.56
2022-08-28T21:33:58.101Z,97981.50
2022-08-28T21:36:25.909Z,97980.13
2022-08-28T21:38:55.144Z,97978.72
2022-08-28T21:41:23.285Z,97980.91
2022-08-28T21:43:51.203Z,97981.03
2022-08-28T21:46:19.094Z,97974.78
2022-08-28T21:48:48.766Z,97980.78
2022-08-28T21:51:17.144Z,97984.88
2022-08-28T21:53:45.544Z,97986.34
2022-08-28T21:56:18.767Z,97982.22
2022-08-28T21:58:46.879Z,97991.28
2022-08-28T22:01:15.333Z,97983.97
2022-08-28T22:03:43.903Z,97985.19
2022-08-28T22:06:12.163Z,97994.50
2022-08-28T22:08:40.158Z,97988.66
2022-08-28T22:11:08.283Z,97985.31
2022-08-28T22:13:37.582Z,97989.88
2022-08-28T22:16:05.617Z,97995.97
2022-08-28T22:18:34.307Z,97993.72
2022-08-28T22:21:20.227Z,97996.56
2022-08-28T22:23:48.167Z,97994.50
2022-08-28T22:26:17.354Z,97993.22
2022-08-28T22:28:46.653Z,97991.69
2022-08-28T22:31:14.693Z,97991.41
2022-08-28T22:33:43.250Z,97990.84
2022-08-28T22:36:11.072Z,97995.56
2022-08-28T22:38:39.574Z,98000.38
2022-08-28T22:41:07.625Z,98005.19
2022-08-28T22:43:35.482Z,97995.56
2022-08-28T22:46:04.903Z,98004.50
2022-08-28T22:48:32.827Z,97999.13
2022-08-28T22:51:05.921Z,97998.13
2022-08-28T22:53:34.200Z,97993.34
2022-08-28T22:56:02.091Z,97994.72
2022-08-28T22:58:30.173Z,97993.34
2022-08-28T23:00:58.263Z,97991.63
2022-08-28T23:03:27.518Z,97985.38
2022-08-28T23:05:55.429Z,97983.84
2022-08-28T23:08:23.468Z,97978.59
2022-08-28T23:10:59.616Z,97983.09
2022-08-28T23:13:27.768Z,97980.44
2022-08-28T23:15:56.047Z,97972.34
2022-08-28T23:18:23.830Z,97972.91
2022-08-28T23:20:54.295Z,97971.81
2022-08-28T23:23:22.963Z,97968.81
2022-08-28T23:25:51.396Z,97961.59
2022-08-28T23:28:19.716Z,97960.06
2022-08-28T23:30:49.547Z,97967.13
2022-08-28T23:33:23.125Z,97961.44
2022-08-28T23:35:53.397Z,97965.28
2022-08-28T23:38:21.240Z,97957.78
2022-08-28T23:40:49.301Z,97954.22
2022-08-28T23:43:18.594Z,97959.91
2022-08-28T23:45:46.417Z,97953.66
2022-08-28T23:48:16.140Z,97954.50
2022-08-28T23:50:43.997Z,97954.22
2022-08-28T23:53:13.204Z,97958.34
2022-08-28T23:55:44.492Z,97958.22
2022-08-28T23:58:12.731Z,97954.50
